Time;durP1;ratioP1;P1;durP2;ratioP2;P2;SDS_P1;SDS_P2;PMS_P1;PMS_P2;Temp;Humidity;BMP_temperature;BMP_pressure;BME280_temperature;BME280_humidity;BME280_pressure;Samples;Min_cycle;Max_cycle;Signal;HPM_P1;HPM_P2
2023/07/23 00:00:37;;;;;;;1.30;1.30;;;15.40;99.90;;;;;;6034342;23;20025;-84
2023/07/23 00:03:03;;;;;;;1.30;1.30;;;15.20;99.90;;;;;;6033580;23;20022;-86
2023/07/23 00:05:29;;;;;;;1.25;1.25;;;15.50;99.90;;;;;;6033462;23;20018;-82
2023/07/23 00:07:58;;;;;;;1.30;1.30;;;15.20;99.90;;;;;;6034820;23;20023;-84
2023/07/23 00:10:24;;;;;;;1.20;1.20;;;15.20;99.90;;;;;;6033720;23;20486;-84
2023/07/23 00:12:50;;;;;;;1.30;1.30;;;15.30;99.90;;;;;;6033378;23;20106;-86
2023/07/23 00:15:24;;;;;;;1.30;1.30;;;15.20;99.90;;;;;;6033574;23;20018;-86
2023/07/23 00:17:49;;;;;;;1.20;1.20;;;15.40;99.90;;;;;;6033666;23;20033;-86
2023/07/23 00:20:15;;;;;;;1.30;1.30;;;15.30;99.90;;;;;;6033796;23;20023;-85
2023/07/23 00:22:41;;;;;;;1.20;1.20;;;15.50;99.90;;;;;;6031899;23;20417;-85
2023/07/23 00:25:08;;;;;;;1.20;1.20;;;15.40;99.90;;;;;;6032907;23;20030;-85
2023/07/23 00:27:34;;;;;;;1.27;1.27;;;15.50;99.90;;;;;;6033659;23;20507;-84
2023/07/23 00:30:00;;;;;;;1.20;1.20;;;15.40;99.90;;;;;;6033404;23;20027;-83
2023/07/23 00:32:26;;;;;;;1.10;1.10;;;15.20;99.90;;;;;;6032689;23;20470;-89
2023/07/23 00:34:52;;;;;;;1.10;1.10;;;15.20;99.90;;;;;;6008954;23;20042;-85
2023/07/23 00:37:17;;;;;;;1.20;1.20;;;15.20;99.90;;;;;;6032839;23;20426;-85
2023/07/23 00:39:43;;;;;;;1.10;1.10;;;15.30;99.90;;;;;;6032865;23;20015;-85
2023/07/23 00:42:09;;;;;;;1.10;1.10;;;15.40;99.90;;;;;;6032724;23;20106;-87
2023/07/23 00:44:34;;;;;;;1.10;1.10;;;15.20;99.90;;;;;;6007816;23;20447;-82
2023/07/23 00:47:02;;;;;;;1.00;1.00;;;15.40;99.90;;;;;;6033292;23;20045;-85
2023/07/23 00:49:29;;;;;;;1.00;1.00;;;15.20;99.90;;;;;;6031267;23;20027;-85
2023/07/23 00:51:55;;;;;;;1.00;1.00;;;15.40;99.90;;;;;;6032744;23;20047;-84
2023/07/23 00:54:21;;;;;;;2.05;1.95;;;15.30;99.90;;;;;;6032997;23;20015;-86
2023/07/23 00:56:47;;;;;;;1.00;1.00;;;15.40;99.90;;;;;;6033374;23;20493;-85
2023/07/23 00:59:13;;;;;;;0.90;0.90;;;15.10;99.90;;;;;;6056968;23;20129;-83
2023/07/23 01:01:42;;;;;;;0.90;0.90;;;15.20;99.90;;;;;;6033475;23;20097;-84
2023/07/23 01:04:07;;;;;;;0.85;0.85;;;15.30;99.90;;;;;;6032902;23;20640;-83
2023/07/23 01:06:36;;;;;;;0.90;0.90;;;15.40;99.90;;;;;;6033465;23;20094;-86
2023/07/23 01:09:03;;;;;;;0.90;0.90;;;15.40;99.90;;;;;;6033235;23;20503;-86
2023/07/23 01:11:32;;;;;;;0.85;0.85;;;15.40;99.90;;;;;;6035808;23;20073;-89
2023/07/23 01:13:59;;;;;;;0.88;0.88;;;15.40;99.90;;;;;;6010125;23;20479;-88
2023/07/23 01:16:25;;;;;;;0.88;0.88;;;15.40;99.90;;;;;;6034961;23;20023;-86
2023/07/23 01:18:51;;;;;;;0.80;0.80;;;15.40;99.90;;;;;;6033823;23;20022;-86
2023/07/23 01:21:17;;;;;;;0.80;0.80;;;15.40;99.90;;;;;;6034002;23;20023;-87
2023/07/23 01:23:43;;;;;;;0.80;0.80;;;15.40;99.90;;;;;;6032953;23;20155;-85
2023/07/23 01:26:09;;;;;;;0.70;0.70;;;15.30;99.90;;;;;;6034140;23;20026;-85
2023/07/23 01:28:35;;;;;;;0.80;0.80;;;15.40;99.90;;;;;;6033765;23;20023;-88
2023/07/23 01:31:01;;;;;;;0.80;0.80;;;15.20;99.90;;;;;;6034801;23;20383;-87
2023/07/23 01:33:28;;;;;;;0.80;0.80;;;15.40;99.90;;;;;;6034342;23;20030;-88
2023/07/23 01:35:56;;;;;;;0.75;0.75;;;15.30;99.90;;;;;;6034622;23;20101;-87
2023/07/23 01:38:22;;;;;;;0.75;0.75;;;15.60;99.90;;;;;;6033952;23;20019;-85
2023/07/23 01:40:48;;;;;;;0.70;0.70;;;15.50;99.90;;;;;;6033978;23;20855;-85
2023/07/23 01:43:14;;;;;;;0.75;0.75;;;15.30;99.90;;;;;;6033596;23;20023;-85
2023/07/23 01:45:46;;;;;;;0.70;0.70;;;15.30;99.90;;;;;;6034575;23;20030;-86
2023/07/23 01:48:16;;;;;;;0.70;0.70;;;15.60;99.90;;;;;;6036146;23;20130;-85
2023/07/23 01:50:42;;;;;;;0.70;0.70;;;15.50;99.90;;;;;;6035483;23;20030;-87
2023/07/23 01:53:08;;;;;;;0.70;0.70;;;15.60;99.90;;;;;;6012484;23;20019;-87
2023/07/23 01:55:34;;;;;;;0.80;0.80;;;15.50;99.90;;;;;;6035092;23;20625;-85
2023/07/23 01:58:00;;;;;;;0.70;0.70;;;15.60;99.90;;;;;;6035057;23;20446;-85
2023/07/23 02:00:26;;;;;;;0.70;0.70;;;15.30;99.90;;;;;;6012116;23;20098;-88
2023/07/23 02:02:52;;;;;;;0.70;0.70;;;15.30;99.90;;;;;;6011767;23;20101;-86
2023/07/23 02:05:18;;;;;;;0.73;0.73;;;15.30;99.90;;;;;;6034706;23;20069;-87
2023/07/23 02:07:45;;;;;;;0.80;0.80;;;15.40;99.90;;;;;;6012632;23;20023;-87
2023/07/23 02:10:14;;;;;;;0.73;0.73;;;15.30;99.90;;;;;;6011394;23;20018;-86
2023/07/23 02:12:40;;;;;;;0.80;0.80;;;15.10;99.90;;;;;;6036414;23;20014;-86
2023/07/23 02:15:06;;;;;;;0.73;0.73;;;15.10;99.90;;;;;;6034128;23;20104;-85
2023/07/23 02:17:31;;;;;;;0.80;0.80;;;15.30;99.90;;;;;;6034941;23;20514;-86
2023/07/23 02:19:57;;;;;;;0.77;0.77;;;15.20;99.90;;;;;;6034631;23;20057;-86
2023/07/23 02:22:23;;;;;;;0.85;0.85;;;15.20;99.90;;;;;;6034403;23;20118;-86
2023/07/23 02:24:48;;;;;;;0.80;0.80;;;15.00;99.90;;;;;;6034439;23;20018;-86
2023/07/23 02:27:14;;;;;;;0.70;0.70;;;15.00;99.90;;;;;;6035060;23;20023;-84
2023/07/23 02:29:40;;;;;;;0.60;0.60;;;14.80;99.90;;;;;;6034653;23;20026;-87
2023/07/23 02:32:07;;;;;;;0.70;0.70;;;15.20;99.90;;;;;;6011466;23;20465;-86
2023/07/23 02:34:33;;;;;;;0.60;0.60;;;15.10;99.90;;;;;;6034429;23;20609;-86
2023/07/23 02:36:58;;;;;;;0.60;0.60;;;15.10;99.90;;;;;;6035985;23;20023;-86
2023/07/23 02:39:24;;;;;;;0.65;0.65;;;15.10;99.90;;;;;;6036129;23;20058;-87
2023/07/23 02:41:50;;;;;;;0.63;0.63;;;15.40;99.90;;;;;;6036034;23;20015;-87
2023/07/23 02:44:15;;;;;;;0.68;0.68;;;15.20;99.90;;;;;;6012029;23;20031;-86
2023/07/23 02:46:41;;;;;;;0.70;0.70;;;15.00;99.90;;;;;;6012268;23;20050;-85
2023/07/23 02:49:07;;;;;;;0.63;0.63;;;15.30;99.90;;;;;;6034646;23;20077;-88
2023/07/23 02:51:32;;;;;;;0.63;0.63;;;15.00;99.90;;;;;;6035174;23;20050;-85
2023/07/23 02:53:58;;;;;;;0.65;0.65;;;15.30;99.90;;;;;;6034272;23;20031;-85
2023/07/23 02:56:24;;;;;;;0.63;0.63;;;15.30;99.90;;;;;;6034700;23;20125;-86
2023/07/23 02:58:49;;;;;;;0.60;0.60;;;15.20;99.90;;;;;;6011618;23;20019;-86
2023/07/23 03:01:15;;;;;;;0.60;0.60;;;15.10;99.90;;;;;;6035452;23;20062;-87
2023/07/23 03:03:41;;;;;;;0.68;0.68;;;15.20;99.90;;;;;;6012166;23;20026;-86
2023/07/23 03:06:08;;;;;;;0.70;0.70;;;15.20;99.90;;;;;;6034355;23;20117;-86
2023/07/23 03:08:34;;;;;;;0.60;0.60;;;15.10;99.90;;;;;;6035119;23;20684;-87
2023/07/23 03:10:59;;;;;;;0.63;0.63;;;15.50;99.90;;;;;;6037067;23;20023;-88
2023/07/23 03:13:25;;;;;;;0.73;0.73;;;15.20;99.90;;;;;;6011834;23;20023;-86
2023/07/23 03:15:51;;;;;;;0.68;0.68;;;15.10;99.90;;;;;;6035522;23;20026;-88
2023/07/23 03:18:16;;;;;;;0.70;0.70;;;15.00;99.90;;;;;;6011149;23;20015;-86
2023/07/23 03:20:42;;;;;;;0.70;0.70;;;15.00;99.90;;;;;;6035670;23;20019;-86
2023/07/23 03:23:07;;;;;;;0.60;0.60;;;15.00;99.90;;;;;;6035328;23;20026;-87
2023/07/23 03:25:33;;;;;;;0.60;0.60;;;15.10;99.90;;;;;;6035351;23;20567;-86
2023/07/23 03:27:59;;;;;;;0.68;0.68;;;15.10;99.90;;;;;;6010853;23;20576;-87
2023/07/23 03:30:28;;;;;;;0.63;0.63;;;15.00;99.90;;;;;;6034840;23;20451;-85
2023/07/23 03:32:54;;;;;;;0.70;0.70;;;15.20;99.90;;;;;;6034363;23;20019;-86
2023/07/23 03:35:21;;;;;;;0.75;0.75;;;15.10;99.90;;;;;;6034312;23;20058;-85
2023/07/23 03:37:48;;;;;;;0.73;0.73;;;15.10;99.90;;;;;;6034612;23;20030;-85
2023/07/23 03:40:13;;;;;;;0.70;0.70;;;14.90;99.90;;;;;;6011282;23;20351;-86
2023/07/23 03:42:39;;;;;;;0.77;0.77;;;15.10;99.90;;;;;;6034146;23;20027;-86
2023/07/23 03:45:05;;;;;;;0.75;0.75;;;15.20;99.90;;;;;;6010487;23;20723;-87
2023/07/23 03:47:31;;;;;;;0.73;0.73;;;15.00;99.90;;;;;;6010481;23;20051;-84
2023/07/23 03:49:57;;;;;;;0.77;0.77;;;14.90;99.90;;;;;;6034613;23;20015;-88
2023/07/23 03:52:23;;;;;;;0.70;0.70;;;14.90;99.90;;;;;;6011367;23;20117;-89
2023/07/23 03:54:49;;;;;;;0.73;0.73;;;14.90;99.90;;;;;;6034691;23;20042;-87
2023/07/23 03:57:14;;;;;;;1.40;1.30;;;15.10;99.90;;;;;;6011496;23;20023;-85
2023/07/23 03:59:46;;;;;;;0.73;0.73;;;14.80;99.90;;;;;;6035103;23;20102;-88
2023/07/23 04:02:12;;;;;;;0.80;0.80;;;14.90;99.90;;;;;;6035540;23;20090;-90
2023/07/23 04:04:38;;;;;;;0.80;0.80;;;14.90;99.90;;;;;;6013310;23;20027;-88
2023/07/23 04:07:05;;;;;;;0.77;0.77;;;14.80;99.90;;;;;;6011841;23;20094;-90
2023/07/23 04:09:31;;;;;;;0.82;0.82;;;15.00;99.90;;;;;;6035546;23;20466;-85
2023/07/23 04:11:57;;;;;;;0.80;0.80;;;14.90;99.90;;;;;;6032774;23;20023;-85
2023/07/23 04:14:24;;;;;;;0.82;0.82;;;15.10;99.90;;;;;;6033638;23;20122;-85
2023/07/23 04:16:50;;;;;;;0.80;0.80;;;15.00;99.90;;;;;;6033607;23;20015;-85
2023/07/23 04:19:16;;;;;;;0.85;0.85;;;14.90;99.90;;;;;;6034253;23;20022;-85
2023/07/23 04:21:42;;;;;;;0.90;0.90;;;15.20;99.90;;;;;;6033895;23;20054;-84
2023/07/23 04:24:07;;;;;;;0.80;0.80;;;15.00;99.90;;;;;;6010111;23;20447;-86
2023/07/23 04:26:33;;;;;;;0.85;0.85;;;14.90;99.90;;;;;;6033777;23;20026;-87
2023/07/23 04:29:00;;;;;;;0.80;0.80;;;15.00;99.90;;;;;;6010070;23;20050;-87
2023/07/23 04:31:26;;;;;;;0.85;0.85;;;15.00;99.90;;;;;;6058020;23;20447;-86
2023/07/23 04:33:52;;;;;;;0.90;0.90;;;15.30;99.90;;;;;;6033452;23;20102;-86
2023/07/23 04:36:18;;;;;;;0.85;0.85;;;15.00;99.90;;;;;;6033130;23;20037;-86
2023/07/23 04:38:44;;;;;;;0.85;0.85;;;15.20;99.90;;;;;;6034088;23;20101;-88
2023/07/23 04:41:11;;;;;;;0.90;0.90;;;15.00;99.90;;;;;;6034286;23;20029;-86
2023/07/23 04:43:38;;;;;;;0.90;0.90;;;15.10;99.90;;;;;;6009441;23;20426;-85
2023/07/23 04:46:04;;;;;;;0.90;0.90;;;15.30;99.90;;;;;;6057981;23;20042;-82
2023/07/23 04:48:34;;;;;;;0.90;0.90;;;15.20;99.90;;;;;;6032233;23;20026;-82
2023/07/23 04:51:09;;;;;;;0.90;0.90;;;15.40;99.90;;;;;;6033645;23;20026;-82
2023/07/23 04:53:35;;;;;;;0.82;0.82;;;15.40;99.90;;;;;;6032542;23;20045;-83
2023/07/23 04:56:03;;;;;;;0.85;0.85;;;15.40;99.90;;;;;;6032229;23;20439;-84
2023/07/23 04:58:29;;;;;;;0.90;0.90;;;15.20;99.90;;;;;;6033392;23;20019;-84
2023/07/23 05:00:55;;;;;;;0.95;0.95;;;15.10;99.90;;;;;;6032964;23;20023;-82
2023/07/23 05:03:21;;;;;;;0.80;0.80;;;15.20;99.90;;;;;;6033588;23;20170;-85
2023/07/23 05:05:49;;;;;;;0.90;0.90;;;15.40;99.90;;;;;;6032109;23;20011;-84
2023/07/23 05:08:16;;;;;;;0.90;0.90;;;15.50;99.90;;;;;;6033479;23;20015;-82
2023/07/23 05:10:41;;;;;;;0.95;0.95;;;15.50;99.90;;;;;;6033627;23;20073;-83
2023/07/23 05:13:07;;;;;;;0.90;0.90;;;15.30;99.90;;;;;;6033005;23;20026;-81
2023/07/23 05:15:33;;;;;;;0.88;0.88;;;15.20;99.90;;;;;;6009022;23;20108;-83
2023/07/23 05:17:58;;;;;;;0.88;0.88;;;15.60;99.90;;;;;;6032409;23;20082;-84
2023/07/23 05:20:24;;;;;;;0.80;0.80;;;15.60;99.90;;;;;;6034097;23;20055;-83
2023/07/23 05:22:50;;;;;;;0.88;0.88;;;15.60;99.90;;;;;;6034377;23;20059;-85
2023/07/23 05:25:16;;;;;;;0.85;0.85;;;15.50;99.90;;;;;;6034855;23;20027;-85
2023/07/23 05:27:42;;;;;;;0.90;0.90;;;15.70;99.90;;;;;;6034579;23;20026;-84
2023/07/23 05:30:08;;;;;;;0.80;0.80;;;15.50;99.90;;;;;;6034350;23;20034;-84
2023/07/23 05:32:34;;;;;;;0.82;0.82;;;15.70;99.90;;;;;;6035026;23;20026;-84
2023/07/23 05:34:59;;;;;;;0.88;0.88;;;15.50;99.90;;;;;;6010975;23;20477;-84
2023/07/23 05:37:25;;;;;;;0.82;0.82;;;15.80;99.90;;;;;;6034089;23;20027;-83
2023/07/23 05:39:54;;;;;;;0.90;0.90;;;15.80;99.90;;;;;;6034033;23;20050;-82
2023/07/23 05:42:20;;;;;;;0.80;0.80;;;15.70;99.90;;;;;;6034817;23;20097;-83
2023/07/23 05:44:46;;;;;;;0.80;0.80;;;15.70;99.90;;;;;;6034335;23;20026;-83
2023/07/23 05:47:12;;;;;;;0.80;0.80;;;15.80;99.90;;;;;;6034516;23;20023;-82
2023/07/23 05:49:38;;;;;;;0.85;0.85;;;15.80;99.90;;;;;;6033541;23;20023;-84
2023/07/23 05:52:05;;;;;;;0.85;0.85;;;16.10;99.90;;;;;;6034170;23;20344;-83
2023/07/23 05:54:30;;;;;;;0.82;0.82;;;16.10;99.90;;;;;;6010510;23;20038;-84
2023/07/23 05:56:56;;;;;;;0.80;0.80;;;16.00;99.90;;;;;;6034485;23;20023;-83
2023/07/23 05:59:22;;;;;;;0.90;0.90;;;16.20;99.90;;;;;;6033750;23;20328;-84
2023/07/23 06:01:48;;;;;;;0.90;0.90;;;16.50;99.90;;;;;;6033399;23;20027;-82
2023/07/23 06:04:14;;;;;;;0.90;0.90;;;16.40;99.90;;;;;;6033825;23;20030;-84
2023/07/23 06:06:40;;;;;;;0.90;0.90;;;16.40;99.90;;;;;;6034848;23;20025;-84
2023/07/23 06:09:05;;;;;;;1.00;0.90;;;16.50;99.90;;;;;;6031855;23;20090;-82
2023/07/23 06:11:31;;;;;;;0.88;0.88;;;16.50;99.90;;;;;;6031485;23;20019;-84
2023/07/23 06:13:58;;;;;;;0.80;0.80;;;16.50;99.90;;;;;;6031099;23;20018;-81
2023/07/23 06:16:25;;;;;;;0.80;0.80;;;16.50;99.90;;;;;;6031954;23;20050;-86
2023/07/23 06:18:51;;;;;;;1.13;1.10;;;16.60;99.90;;;;;;6031475;23;20033;-84
2023/07/23 06:21:16;;;;;;;0.80;0.80;;;16.70;99.90;;;;;;6031846;23;20027;-85
2023/07/23 06:23:42;;;;;;;0.80;0.80;;;16.60;99.90;;;;;;6032425;23;20027;-86
2023/07/23 06:26:08;;;;;;;0.80;0.80;;;16.80;99.90;;;;;;6035405;23;20031;-83
2023/07/23 06:28:33;;;;;;;0.80;0.80;;;16.70;99.90;;;;;;6012020;23;20059;-84
2023/07/23 06:30:59;;;;;;;0.80;0.80;;;16.90;99.90;;;;;;6035077;23;20023;-84
2023/07/23 06:33:25;;;;;;;0.80;0.80;;;16.90;99.90;;;;;;6035382;23;20458;-83
2023/07/23 06:35:51;;;;;;;0.70;0.70;;;16.90;99.90;;;;;;6034985;23;20030;-86
2023/07/23 06:38:17;;;;;;;0.73;0.73;;;16.90;99.90;;;;;;6036015;23;20410;-87
2023/07/23 06:40:54;;;;;;;0.73;0.73;;;17.00;99.90;;;;;;6036993;23;20035;-87
2023/07/23 06:43:19;;;;;;;0.73;0.73;;;17.00;99.90;;;;;;6012861;23;20057;-86
2023/07/23 06:45:47;;;;;;;0.70;0.70;;;17.10;99.90;;;;;;6036172;23;20550;-86
2023/07/23 06:48:13;;;;;;;0.75;0.75;;;17.10;99.90;;;;;;6035471;23;20324;-87
2023/07/23 06:50:39;;;;;;;0.80;0.80;;;17.10;99.90;;;;;;6036474;23;20031;-86
2023/07/23 06:53:06;;;;;;;0.80;0.80;;;17.10;99.90;;;;;;6036784;23;20403;-85
2023/07/23 06:56:04;;;;;;;0.80;0.80;;;17.30;99.90;;;;;;6037491;23;20027;-91
2023/07/23 06:58:32;;;;;;;0.80;0.80;;;17.50;99.90;;;;;;6011760;23;20023;-83
2023/07/23 07:00:58;;;;;;;0.77;0.77;;;17.40;99.90;;;;;;6036234;23;20026;-86
2023/07/23 07:03:24;;;;;;;1.20;1.20;;;17.40;99.90;;;;;;6035119;23;20022;-85
2023/07/23 07:05:51;;;;;;;0.80;0.80;;;17.40;99.90;;;;;;6035542;23;20101;-93
2023/07/23 07:08:16;;;;;;;0.80;0.80;;;17.30;99.90;;;;;;6012223;23;20097;-82
2023/07/23 07:10:42;;;;;;;0.80;0.80;;;17.30;99.90;;;;;;6035241;23;20117;-85
2023/07/23 07:13:08;;;;;;;0.75;0.75;;;17.40;99.90;;;;;;6011294;23;20030;-83
2023/07/23 07:15:33;;;;;;;0.80;0.80;;;17.30;99.90;;;;;;6035111;23;20025;-83
2023/07/23 07:17:59;;;;;;;0.88;0.88;;;17.40;99.90;;;;;;6035192;23;20055;-82
2023/07/23 07:20:25;;;;;;;0.80;0.80;;;17.40;99.90;;;;;;6034901;23;20621;-80
2023/07/23 07:22:50;;;;;;;0.80;0.80;;;17.20;99.90;;;;;;6035063;23;20502;-85
2023/07/23 07:25:16;;;;;;;0.80;0.80;;;17.30;99.90;;;;;;6034534;23;20085;-83
2023/07/23 07:27:42;;;;;;;0.80;0.80;;;17.40;99.90;;;;;;6034829;23;20050;-83
2023/07/23 07:30:07;;;;;;;0.80;0.80;;;17.40;99.90;;;;;;6034914;23;20022;-82
2023/07/23 07:32:33;;;;;;;0.80;0.80;;;17.40;99.90;;;;;;6035130;23;20030;-83
2023/07/23 07:34:59;;;;;;;0.80;0.80;;;17.40;99.90;;;;;;6034283;23;20065;-83
2023/07/23 07:37:25;;;;;;;0.90;0.90;;;17.50;99.90;;;;;;6034574;23;20105;-81
2023/07/23 07:39:51;;;;;;;0.90;0.90;;;17.30;99.90;;;;;;6035335;23;20026;-80
2023/07/23 07:42:17;;;;;;;0.90;0.90;;;17.30;99.90;;;;;;6034567;23;20465;-82
2023/07/23 07:44:43;;;;;;;0.90;0.90;;;17.20;99.90;;;;;;6034257;23;20069;-83
2023/07/23 07:47:09;;;;;;;0.90;0.90;;;17.20;99.90;;;;;;6034752;23;20873;-82
2023/07/23 07:49:34;;;;;;;0.90;0.90;;;17.10;99.90;;;;;;6032283;23;20054;-82
2023/07/23 07:52:00;;;;;;;0.90;0.90;;;17.10;99.90;;;;;;6034158;23;20101;-82
2023/07/23 07:54:26;;;;;;;0.90;0.90;;;16.90;99.90;;;;;;6034998;23;20033;-85
2023/07/23 07:56:52;;;;;;;0.95;0.95;;;17.00;99.90;;;;;;6034750;23;20026;-84
2023/07/23 07:59:18;;;;;;;1.00;1.00;;;16.90;99.90;;;;;;6033977;23;20793;-81
2023/07/23 08:01:44;;;;;;;1.02;1.02;;;16.70;99.90;;;;;;6059592;23;20312;-83
2023/07/23 08:04:10;;;;;;;1.10;1.10;;;16.70;99.90;;;;;;6006849;23;20030;-81
2023/07/23 08:06:40;;;;;;;1.10;1.10;;;16.60;99.90;;;;;;6007714;23;20026;-82
2023/07/23 08:09:09;;;;;;;1.10;1.10;;;16.60;99.90;;;;;;6057006;23;20639;-83
2023/07/23 08:11:36;;;;;;;1.10;1.10;;;16.50;99.90;;;;;;6035012;23;20374;-85
2023/07/23 08:14:03;;;;;;;1.20;1.20;;;16.50;99.90;;;;;;6033764;23;20023;-89
2023/07/23 08:16:30;;;;;;;1.20;1.20;;;16.50;99.90;;;;;;6035133;23;20026;-90
2023/07/23 08:18:56;;;;;;;1.30;1.30;;;16.70;99.90;;;;;;6010277;23;20560;-83
2023/07/23 08:21:22;;;;;;;1.50;1.40;;;16.50;99.90;;;;;;6034329;23;20029;-84
2023/07/23 08:23:49;;;;;;;1.50;1.40;;;16.40;99.90;;;;;;6034347;23;20042;-85
2023/07/23 08:26:20;;;;;;;1.50;1.40;;;16.50;99.90;;;;;;6033758;23;20388;-83
2023/07/23 08:28:58;;;;;;;1.40;1.40;;;16.50;99.90;;;;;;6033262;23;20033;-86
2023/07/23 08:31:24;;;;;;;1.50;1.40;;;16.90;99.90;;;;;;6034249;23;20018;-85
2023/07/23 08:33:52;;;;;;;1.55;1.45;;;16.90;99.90;;;;;;6034833;23;20019;-85
2023/07/23 08:36:18;;;;;;;1.60;1.50;;;17.00;99.90;;;;;;6033988;23;20157;-86
2023/07/23 08:38:44;;;;;;;1.67;1.58;;;16.80;99.90;;;;;;6034402;23;20339;-84
2023/07/23 08:41:23;;;;;;;1.63;1.52;;;16.80;99.90;;;;;;6034097;23;20029;-81
2023/07/23 08:44:10;;;;;;;1.70;1.60;;;17.10;99.90;;;;;;6033955;23;20538;-85
2023/07/23 08:46:45;;;;;;;1.70;1.60;;;16.80;99.90;;;;;;6034755;23;20101;-85
2023/07/23 08:49:11;;;;;;;1.75;1.65;;;16.70;99.90;;;;;;6035674;23;20054;-90
2023/07/23 08:51:45;;;;;;;1.80;1.70;;;16.70;99.90;;;;;;6033767;23;20053;-88
2023/07/23 08:54:12;;;;;;;1.80;1.70;;;16.70;99.90;;;;;;6033383;23;20038;-82
2023/07/23 08:56:40;;;;;;;1.98;1.88;;;16.70;99.90;;;;;;6034528;23;20026;-86
2023/07/23 08:59:07;;;;;;;2.00;1.90;;;16.60;99.90;;;;;;6033737;23;20038;-83
2023/07/23 09:01:38;;;;;;;1.98;1.88;;;16.90;99.90;;;;;;6033787;23;20106;-87
2023/07/23 09:04:06;;;;;;;2.00;1.90;;;16.70;99.90;;;;;;6033766;23;20027;-81
2023/07/23 09:06:32;;;;;;;2.10;2.00;;;16.90;99.90;;;;;;6034585;23;20023;-88
2023/07/23 09:09:06;;;;;;;2.13;2.03;;;17.00;99.90;;;;;;6033817;23;20021;-82
2023/07/23 09:11:32;;;;;;;2.10;2.00;;;16.70;99.90;;;;;;6034108;23;20354;-83
2023/07/23 09:14:16;;;;;;;2.13;2.03;;;16.80;99.90;;;;;;6058899;23;20105;-82
2023/07/23 09:16:44;;;;;;;2.35;2.25;;;16.70;99.90;;;;;;6033538;23;20042;-83
2023/07/23 09:19:13;;;;;;;2.28;2.17;;;16.70;99.90;;;;;;6034032;23;20022;-81
2023/07/23 09:21:44;;;;;;;2.45;2.35;;;16.70;99.90;;;;;;6034009;23;20037;-82
2023/07/23 09:24:13;;;;;;;2.42;2.33;;;16.70;99.90;;;;;;6033333;23;20019;-82
2023/07/23 09:26:39;;;;;;;2.50;2.40;;;16.80;99.90;;;;;;6033790;23;20463;-81
2023/07/23 09:29:09;;;;;;;2.50;2.40;;;16.70;99.90;;;;;;6033934;23;20027;-81
2023/07/23 09:31:36;;;;;;;2.35;2.25;;;16.70;99.90;;;;;;6033871;23;20031;-82
2023/07/23 09:34:03;;;;;;;2.30;2.20;;;16.80;99.90;;;;;;6033535;23;20034;-79
2023/07/23 09:36:29;;;;;;;2.38;2.28;;;16.70;99.90;;;;;;6033924;23;20023;-85
2023/07/23 09:39:03;;;;;;;2.30;2.20;;;16.60;99.90;;;;;;6033793;23;20354;-80
2023/07/23 09:41:34;;;;;;;2.10;2.00;;;16.70;99.90;;;;;;6033576;23;20038;-80
2023/07/23 09:44:06;;;;;;;2.10;2.00;;;16.90;99.90;;;;;;6033322;23;20498;-83
2023/07/23 09:46:32;;;;;;;1.80;1.70;;;17.00;99.90;;;;;;6059125;23;20023;-81
2023/07/23 09:48:58;;;;;;;1.90;1.80;;;17.00;99.90;;;;;;6033705;23;20170;-80
2023/07/23 09:51:24;;;;;;;1.80;1.70;;;17.10;99.90;;;;;;6033695;23;20820;-82
2023/07/23 09:53:51;;;;;;;1.60;1.50;;;17.20;99.90;;;;;;6032650;23;20399;-79
2023/07/23 09:56:18;;;;;;;1.60;1.50;;;17.10;99.90;;;;;;6033115;23;20717;-81
2023/07/23 09:58:47;;;;;;;1.60;1.50;;;17.10;99.90;;;;;;6059446;23;20534;-81
2023/07/23 10:01:14;;;;;;;1.52;1.42;;;17.40;99.90;;;;;;6033984;23;20018;-80
2023/07/23 10:03:40;;;;;;;1.50;1.40;;;17.20;99.90;;;;;;6056846;23;20123;-81
2023/07/23 10:06:11;;;;;;;1.50;1.40;;;17.40;99.90;;;;;;6033598;23;20481;-79
2023/07/23 10:08:41;;;;;;;1.50;1.40;;;17.30;99.90;;;;;;6060630;23;20018;-81
2023/07/23 10:11:08;;;;;;;1.20;1.20;;;17.50;99.90;;;;;;6035430;23;20022;-83
2023/07/23 10:13:34;;;;;;;1.20;1.20;;;17.70;99.90;;;;;;6011625;23;20714;-82
2023/07/23 10:16:03;;;;;;;1.17;1.17;;;17.50;99.90;;;;;;6035967;23;20062;-80
2023/07/23 10:18:29;;;;;;;1.10;1.10;;;17.40;99.90;;;;;;6035085;23;20026;-80
2023/07/23 10:20:55;;;;;;;1.10;1.10;;;17.20;99.90;;;;;;6035313;23;20030;-82
2023/07/23 10:23:22;;;;;;;1.20;1.20;;;17.30;99.90;;;;;;6034953;23;20494;-84
2023/07/23 10:25:48;;;;;;;1.17;1.17;;;17.20;99.90;;;;;;6035131;23;20094;-80
2023/07/23 10:28:22;;;;;;;1.35;1.15;;;17.20;99.90;;;;;;6035738;23;20018;-80
2023/07/23 10:31:08;;;;;;;1.10;1.10;;;17.10;99.90;;;;;;6035983;23;20391;-84
2023/07/23 10:33:33;;;;;;;1.10;1.10;;;17.10;99.90;;;;;;6034342;23;20033;-77
2023/07/23 10:36:04;;;;;;;1.10;1.10;;;17.10;99.90;;;;;;6035565;23;20106;-80
2023/07/23 10:38:32;;;;;;;1.17;1.17;;;17.10;99.90;;;;;;6061076;23;20379;-82
2023/07/23 10:40:58;;;;;;;1.10;1.10;;;17.00;99.90;;;;;;6034891;23;20019;-82
2023/07/23 10:43:36;;;;;;;1.00;1.00;;;17.10;99.90;;;;;;6035608;23;20797;-81
2023/07/23 10:46:02;;;;;;;1.10;1.10;;;17.20;99.90;;;;;;6034976;23;20022;-80
2023/07/23 10:48:48;;;;;;;1.02;1.02;;;17.20;99.90;;;;;;6035332;23;20074;-80
2023/07/23 10:51:15;;;;;;;1.10;1.10;;;17.10;99.90;;;;;;6035438;23;20030;-80
2023/07/23 10:54:02;;;;;;;1.10;1.10;;;17.30;99.90;;;;;;6034458;23;20015;-78
2023/07/23 10:56:31;;;;;;;1.00;1.00;;;17.30;99.90;;;;;;6035117;23;20027;-80
2023/07/23 10:59:03;;;;;;;1.10;1.10;;;17.30;99.90;;;;;;6035190;23;20026;-82
2023/07/23 11:01:28;;;;;;;1.05;1.05;;;17.20;99.90;;;;;;6034776;23;20371;-81
2023/07/23 11:03:56;;;;;;;1.00;1.00;;;17.20;99.90;;;;;;6058638;23;20019;-82
2023/07/23 11:06:32;;;;;;;1.00;1.00;;;17.20;99.90;;;;;;6059673;23;20022;-80
2023/07/23 11:09:04;;;;;;;0.90;0.90;;;17.40;99.90;;;;;;6032953;23;20046;-81
2023/07/23 11:11:36;;;;;;;0.90;0.90;;;17.30;99.90;;;;;;6034603;23;20115;-82
2023/07/23 11:14:03;;;;;;;0.90;0.90;;;17.30;99.90;;;;;;6034365;23;20030;-82
2023/07/23 11:16:34;;;;;;;0.88;0.88;;;17.30;99.90;;;;;;6034115;23;20532;-83
2023/07/23 11:19:00;;;;;;;0.90;0.90;;;17.40;99.90;;;;;;6034782;23;20098;-81
2023/07/23 11:21:27;;;;;;;0.80;0.80;;;17.40;99.90;;;;;;6034411;23;20027;-80
2023/07/23 11:23:53;;;;;;;0.80;0.80;;;17.50;99.90;;;;;;6034939;23;20501;-80
2023/07/23 11:26:19;;;;;;;0.80;0.80;;;17.50;99.90;;;;;;6034419;23;20027;-80
2023/07/23 11:28:46;;;;;;;0.80;0.80;;;17.30;99.90;;;;;;6034575;23;20019;-82
2023/07/23 11:31:13;;;;;;;0.80;0.80;;;17.40;99.90;;;;;;6034357;23;20098;-80
2023/07/23 11:33:38;;;;;;;0.80;0.80;;;17.50;99.90;;;;;;6034266;23;20031;-82
2023/07/23 11:36:04;;;;;;;0.80;0.80;;;17.40;99.90;;;;;;6060239;23;20029;-80
2023/07/23 11:38:33;;;;;;;0.80;0.80;;;17.50;99.90;;;;;;6034971;23;20573;-82
2023/07/23 11:41:00;;;;;;;0.80;0.80;;;17.50;99.90;;;;;;6034283;23;20101;-80
2023/07/23 11:43:26;;;;;;;0.70;0.70;;;17.50;99.90;;;;;;6060088;23;20035;-82
2023/07/23 11:45:51;;;;;;;0.85;0.85;;;17.60;99.90;;;;;;6033911;23;20026;-81
2023/07/23 11:48:22;;;;;;;1.00;1.00;;;17.70;99.90;;;;;;6034560;23;20516;-82
2023/07/23 11:50:49;;;;;;;1.10;1.10;;;17.70;99.90;;;;;;6033826;23;20026;-87
2023/07/23 11:53:33;;;;;;;1.00;1.00;;;17.80;99.90;;;;;;6034898;23;20122;-82
2023/07/23 11:56:10;;;;;;;1.00;1.00;;;17.70;99.90;;;;;;6033982;23;20029;-82
2023/07/23 11:58:37;;;;;;;1.38;1.35;;;17.70;99.90;;;;;;6034125;23;20030;-81
2023/07/23 12:01:04;;;;;;;1.92;1.83;;;17.60;99.90;;;;;;6032946;23;20379;-85
2023/07/23 12:03:34;;;;;;;1.98;1.88;;;17.60;99.90;;;;;;6034063;23;20025;-82
2023/07/23 12:06:00;;;;;;;2.13;2.03;;;17.70;99.90;;;;;;6032909;23;20470;-83
2023/07/23 12:08:30;;;;;;;2.20;2.10;;;17.80;99.90;;;;;;6034591;23;20018;-81
2023/07/23 12:10:55;;;;;;;2.30;2.20;;;17.70;99.90;;;;;;6034019;23;20019;-80
2023/07/23 12:13:24;;;;;;;2.25;2.15;;;17.90;99.90;;;;;;6034127;23;20022;-81
2023/07/23 12:15:54;;;;;;;1.33;1.33;;;17.90;99.90;;;;;;6033748;23;20111;-82
2023/07/23 12:18:22;;;;;;;0.73;0.73;;;17.70;99.90;;;;;;6009792;23;20023;-84
2023/07/23 12:20:47;;;;;;;0.70;0.70;;;17.70;99.90;;;;;;6033695;23;20423;-81
2023/07/23 12:23:13;;;;;;;0.82;0.82;;;17.70;99.90;;;;;;6034779;23;20034;-83
2023/07/23 12:25:39;;;;;;;0.98;0.98;;;17.70;99.90;;;;;;6033510;23;20034;-81
2023/07/23 12:28:05;;;;;;;0.80;0.80;;;17.70;99.90;;;;;;6034773;23;20027;-83
2023/07/23 12:30:30;;;;;;;1.17;1.17;;;17.70;99.90;;;;;;6033896;23;20342;-81
2023/07/23 12:32:56;;;;;;;1.15;1.15;;;17.70;99.90;;;;;;6034136;23;20018;-82
2023/07/23 12:35:21;;;;;;;1.02;1.02;;;17.80;99.90;;;;;;6034334;23;20382;-82
2023/07/23 12:37:47;;;;;;;1.25;1.15;;;18.00;99.90;;;;;;6034435;23;20023;-82
2023/07/23 12:40:13;;;;;;;1.10;1.10;;;17.90;99.90;;;;;;6034531;23;20043;-79
2023/07/23 12:42:38;;;;;;;1.55;1.45;;;18.10;99.90;;;;;;6034199;23;20030;-81
2023/07/23 12:45:04;;;;;;;1.90;1.80;;;18.00;99.90;;;;;;6034243;23;20033;-81
2023/07/23 12:47:30;;;;;;;1.77;1.67;;;18.10;99.90;;;;;;6034194;23;20067;-81